createdAt,value
2019-03-10T00:00:48.316Z,7.90
2019-03-10T00:03:17.800Z,7.90
2019-03-10T00:05:47.192Z,7.90
2019-03-10T00:08:16.630Z,7.90
2019-03-10T00:10:45.984Z,7.90
2019-03-10T00:13:15.381Z,7.90
2019-03-10T00:15:44.749Z,7.90
2019-03-10T00:18:14.212Z,7.90
2019-03-10T00:20:43.581Z,7.90
2019-03-10T00:23:13.353Z,7.90
2019-03-10T00:25:42.726Z,7.90
2019-03-10T00:28:12.615Z,7.90
2019-03-10T00:30:41.993Z,7.90
2019-03-10T00:33:11.479Z,7.90
2019-03-10T00:35:40.912Z,7.90
2019-03-10T00:38:10.362Z,7.90
2019-03-10T00:41:19.628Z,7.90
2019-03-10T00:44:19.317Z,8.00
2019-03-10T00:47:25.074Z,8.00
2019-03-10T00:50:25.645Z,8.00
2019-03-10T00:53:01.882Z,7.90
2019-03-10T00:55:31.725Z,7.90
2019-03-10T00:58:01.248Z,7.90
2019-03-10T01:00:30.661Z,7.90
2019-03-10T01:03:00.056Z,7.90
2019-03-10T01:05:29.522Z,7.90
2019-03-10T01:07:59.656Z,7.90
2019-03-10T01:10:29.345Z,7.90
2019-03-10T01:12:58.911Z,7.90
2019-03-10T01:15:28.436Z,7.90
2019-03-10T01:17:59.665Z,7.90
2019-03-10T01:20:29.432Z,7.90
2019-03-10T01:22:58.826Z,7.90
2019-03-10T01:25:28.629Z,7.90
2019-03-10T01:27:57.996Z,7.90
2019-03-10T01:30:31.289Z,7.90
2019-03-10T01:33:36.353Z,7.90
2019-03-10T01:36:15.226Z,7.90
2019-03-10T01:38:45.403Z,7.90
2019-03-10T01:41:15.199Z,7.90
2019-03-10T01:43:44.961Z,7.90
2019-03-10T01:46:14.336Z,7.90
2019-03-10T01:48:43.805Z,7.90
2019-03-10T01:51:13.188Z,7.90
2019-03-10T01:53:42.685Z,7.90
2019-03-10T01:56:12.217Z,7.90
2019-03-10T01:58:41.759Z,7.90
2019-03-10T02:01:11.189Z,7.80
2019-03-10T02:03:41.266Z,7.90
2019-03-10T02:06:10.728Z,7.90
2019-03-10T02:08:40.092Z,7.90
2019-03-10T02:11:10.206Z,7.80
2019-03-10T02:13:40.253Z,7.80
2019-03-10T02:16:10.353Z,7.80
2019-03-10T02:18:40.197Z,7.80
2019-03-10T02:21:09.656Z,7.70
2019-03-10T02:23:39.022Z,7.70
2019-03-10T02:26:09.184Z,7.70
2019-03-10T02:28:38.554Z,7.70
2019-03-10T02:31:08.290Z,7.70
2019-03-10T02:33:38.143Z,7.70
2019-03-10T02:36:07.596Z,7.60
2019-03-10T02:38:37.442Z,7.60
2019-03-10T02:41:07.645Z,7.70
2019-03-10T02:43:37.361Z,7.70
2019-03-10T02:46:07.172Z,7.70
2019-03-10T02:48:36.546Z,7.70
2019-03-10T02:51:06.441Z,7.70
2019-03-10T02:53:35.816Z,7.70
2019-03-10T02:56:05.281Z,7.70
2019-03-10T02:58:34.650Z,7.70
2019-03-10T03:01:04.851Z,7.70
2019-03-10T03:03:34.969Z,7.70
2019-03-10T03:06:04.480Z,7.70
2019-03-10T03:08:53.017Z,7.70
2019-03-10T03:11:22.829Z,7.60
2019-03-10T03:13:52.262Z,7.50
2019-03-10T03:16:21.743Z,7.50
2019-03-10T03:18:51.460Z,7.60
2019-03-10T03:21:20.858Z,7.50
2019-03-10T03:23:50.715Z,7.50
2019-03-10T03:26:20.171Z,7.50
2019-03-10T03:28:49.561Z,7.40
2019-03-10T03:31:19.189Z,7.30
2019-03-10T03:33:48.750Z,7.30
2019-03-10T03:36:25.291Z,7.30
2019-03-10T03:39:05.943Z,7.20
2019-03-10T03:41:35.353Z,7.20
2019-03-10T03:44:05.237Z,7.10
2019-03-10T03:46:34.623Z,7.00
2019-03-10T03:49:04.428Z,7.00
2019-03-10T03:51:34.560Z,6.90
2019-03-10T03:54:04.472Z,6.90
2019-03-10T03:56:33.911Z,6.80
2019-03-10T03:59:03.379Z,6.90
2019-03-10T04:01:43.252Z,6.90
2019-03-10T04:04:13.062Z,6.80
2019-03-10T04:06:42.482Z,6.80
2019-03-10T04:09:11.969Z,6.70
2019-03-10T04:11:41.705Z,6.60
2019-03-10T04:14:11.424Z,6.60
2019-03-10T04:16:40.889Z,6.60
2019-03-10T04:19:10.341Z,6.50
2019-03-10T04:21:40.168Z,6.50
2019-03-10T04:24:09.982Z,6.40
2019-03-10T04:26:39.373Z,6.40
2019-03-10T04:29:09.160Z,6.40
2019-03-10T04:31:38.596Z,6.30
2019-03-10T04:34:07.987Z,6.30
2019-03-10T04:36:37.353Z,6.20
2019-03-10T04:39:07.832Z,6.30
2019-03-10T04:41:37.497Z,6.20
2019-03-10T04:44:07.023Z,6.10
2019-03-10T04:46:36.398Z,6.10
2019-03-10T04:49:05.838Z,6.10
2019-03-10T04:51:35.298Z,6.10
2019-03-10T04:54:04.720Z,6.00
2019-03-10T04:56:42.055Z,6.00
2019-03-10T04:59:11.409Z,6.00
2019-03-10T05:01:40.797Z,6.00
2019-03-10T05:04:10.269Z,6.00
2019-03-10T05:06:40.667Z,6.00
2019-03-10T05:09:10.675Z,6.00
2019-03-10T05:11:40.172Z,5.90
2019-03-10T05:14:09.557Z,5.90
2019-03-10T05:16:39.093Z,5.90
2019-03-10T05:19:08.856Z,5.90
2019-03-10T05:21:38.277Z,5.90
2019-03-10T05:24:12.282Z,5.90
2019-03-10T05:26:42.071Z,5.90
2019-03-10T05:29:11.516Z,5.90
2019-03-10T05:31:41.309Z,5.80
2019-03-10T05:34:10.743Z,5.80
2019-03-10T05:36:40.144Z,5.80
2019-03-10T05:39:09.516Z,5.80
2019-03-10T05:41:39.219Z,5.80
2019-03-10T05:44:08.769Z,5.80
2019-03-10T05:46:38.181Z,5.70
2019-03-10T05:49:07.623Z,5.80
2019-03-10T05:51:37.092Z,5.80
2019-03-10T05:54:06.468Z,5.70
2019-03-10T05:56:36.412Z,5.70
2019-03-10T05:59:05.800Z,5.70
2019-03-10T06:01:35.916Z,5.70
2019-03-10T06:04:05.701Z,5.70
2019-03-10T06:06:35.394Z,5.70
2019-03-10T06:09:07.082Z,5.70
2019-03-10T06:11:36.874Z,5.70
2019-03-10T06:14:06.351Z,5.70
2019-03-10T06:16:35.840Z,5.70
2019-03-10T06:19:05.333Z,5.60
2019-03-10T06:21:34.726Z,5.60
2019-03-10T06:24:04.227Z,5.70
2019-03-10T06:26:33.671Z,5.70
2019-03-10T06:29:03.338Z,5.70
2019-03-10T06:31:33.107Z,5.70
2019-03-10T06:34:02.708Z,5.70
2019-03-10T06:36:32.089Z,5.60
2019-03-10T06:39:01.835Z,5.60
2019-03-10T06:41:31.853Z,5.60
2019-03-10T06:44:02.022Z,5.60
2019-03-10T06:46:31.454Z,5.60
2019-03-10T06:49:00.928Z,5.60
2019-03-10T06:51:30.676Z,5.50
2019-03-10T06:54:00.369Z,5.60
2019-03-10T06:56:30.166Z,5.50
2019-03-10T06:59:00.268Z,5.60
2019-03-10T07:01:30.390Z,5.60
2019-03-10T07:04:00.191Z,5.50
2019-03-10T07:06:29.575Z,5.60
2019-03-10T07:08:59.588Z,5.50
2019-03-10T07:11:29.120Z,5.60
2019-03-10T07:13:58.932Z,5.60
2019-03-10T07:16:28.690Z,5.60
2019-03-10T07:18:58.932Z,5.60
2019-03-10T07:21:28.389Z,5.60
2019-03-10T07:23:58.157Z,5.60
2019-03-10T07:26:28.536Z,5.70
2019-03-10T07:29:09.075Z,5.70
2019-03-10T07:31:57.519Z,5.70
2019-03-10T07:34:51.905Z,5.70
2019-03-10T07:37:47.437Z,5.70
2019-03-10T07:40:42.072Z,5.80
2019-03-10T07:43:28.843Z,5.80
2019-03-10T07:46:18.270Z,5.90
2019-03-10T07:49:19.238Z,5.90
2019-03-10T07:52:04.462Z,6.00
2019-03-10T07:54:53.611Z,6.00
2019-03-10T07:57:40.664Z,6.10
2019-03-10T08:00:29.245Z,6.10
2019-03-10T08:03:07.680Z,6.10
2019-03-10T08:06:01.964Z,6.20
2019-03-10T08:08:53.381Z,6.20
2019-03-10T08:11:47.890Z,6.30
2019-03-10T08:14:45.289Z,6.40
2019-03-10T08:17:24.525Z,6.40
2019-03-10T08:20:19.217Z,6.40
2019-03-10T08:23:05.291Z,6.50
2019-03-10T08:26:03.111Z,6.60
2019-03-10T08:28:50.517Z,6.60
2019-03-10T08:31:38.041Z,6.80
2019-03-10T08:34:36.145Z,7.00
2019-03-10T08:37:36.591Z,7.10
2019-03-10T08:40:32.077Z,7.30
2019-03-10T08:43:29.872Z,7.40
2019-03-10T08:46:10.953Z,7.40
2019-03-10T08:48:49.642Z,7.50
2019-03-10T08:51:36.645Z,7.60
2019-03-10T08:54:25.311Z,7.70
2019-03-10T08:57:13.305Z,7.80
2019-03-10T09:00:01.943Z,7.90
2019-03-10T09:02:53.452Z,8.10
2019-03-10T09:05:48.839Z,8.50
2019-03-10T09:08:43.275Z,8.90
2019-03-10T09:11:41.036Z,9.10
2019-03-10T09:14:29.646Z,9.30
2019-03-10T09:17:21.238Z,9.30
2019-03-10T09:20:16.541Z,9.30
2019-03-10T09:22:56.297Z,9.40
2019-03-10T09:26:05.823Z,9.50
2019-03-10T09:28:53.278Z,9.50
2019-03-10T09:31:41.757Z,9.50
2019-03-10T09:34:29.545Z,9.50
2019-03-10T09:37:11.885Z,9.60
2019-03-10T09:39:53.004Z,9.50
2019-03-10T09:42:40.030Z,9.60
2019-03-10T09:45:15.674Z,9.60
2019-03-10T09:47:53.196Z,9.60
2019-03-10T09:50:47.317Z,9.80
2019-03-10T09:53:42.508Z,9.90
2019-03-10T09:56:29.369Z,9.90
2019-03-10T09:59:35.894Z,9.80
2019-03-10T10:02:21.788Z,9.90
2019-03-10T10:04:58.566Z,9.90
2019-03-10T10:07:45.790Z,9.90
2019-03-10T10:10:33.076Z,9.90
2019-03-10T10:13:16.669Z,9.90
2019-03-10T10:16:11.706Z,10.00
2019-03-10T10:19:00.020Z,10.00
2019-03-10T10:22:00.982Z,10.10
2019-03-10T10:24:37.005Z,10.20
2019-03-10T10:27:24.762Z,10.40
2019-03-10T10:30:10.858Z,10.60
2019-03-10T10:32:59.589Z,10.70
2019-03-10T10:35:57.102Z,10.80
2019-03-10T10:38:41.099Z,10.80
2019-03-10T10:41:29.834Z,10.80
2019-03-10T10:44:18.161Z,10.80
2019-03-10T10:47:24.945Z,10.90
2019-03-10T10:50:13.686Z,10.90
2019-03-10T10:53:00.709Z,10.90
2019-03-10T10:55:55.510Z,10.90
2019-03-10T10:58:50.055Z,10.90
2019-03-10T11:01:38.460Z,10.80
2019-03-10T11:04:25.810Z,10.80
2019-03-10T11:07:26.497Z,10.80
2019-03-10T11:10:14.378Z,10.90
2019-03-10T11:12:54.463Z,11.00
2019-03-10T11:15:53.662Z,11.20
2019-03-10T11:18:34.541Z,11.30
2019-03-10T11:21:23.002Z,11.50
2019-03-10T11:24:07.616Z,11.50
2019-03-10T11:27:15.181Z,11.50
2019-03-10T11:29:52.952Z,11.40
2019-03-10T11:32:41.388Z,11.20
2019-03-10T11:35:22.238Z,11.20
2019-03-10T11:38:26.989Z,11.10
2019-03-10T11:41:34.367Z,11.10
2019-03-10T11:44:26.013Z,10.90
2019-03-10T11:47:17.274Z,10.60
2019-03-10T11:50:04.490Z,10.40
2019-03-10T11:52:44.125Z,10.30
2019-03-10T11:55:47.666Z,10.20
2019-03-10T11:58:45.376Z,10.30
2019-03-10T12:01:43.085Z,10.50
2019-03-10T12:04:34.406Z,10.90
2019-03-10T12:07:12.122Z,11.20
2019-03-10T12:09:41.576Z,11.30
2019-03-10T12:12:11.078Z,11.30
2019-03-10T12:14:40.921Z,11.30
2019-03-10T12:17:10.741Z,11.30
2019-03-10T12:19:40.096Z,11.20
2019-03-10T12:22:09.505Z,11.10
2019-03-10T12:24:38.875Z,10.90
2019-03-10T12:27:08.397Z,10.80
2019-03-10T12:29:38.173Z,10.70
2019-03-10T12:32:07.898Z,10.50
2019-03-10T12:34:37.298Z,10.40
2019-03-10T12:37:06.754Z,10.30
2019-03-10T12:39:36.205Z,10.20
2019-03-10T12:42:05.649Z,10.20
2019-03-10T12:44:35.226Z,10.00
2019-03-10T12:47:05.445Z,9.90
2019-03-10T12:49:35.222Z,9.80
2019-03-10T12:52:04.958Z,9.70
2019-03-10T12:54:34.769Z,9.70
2019-03-10T12:57:04.230Z,9.60
2019-03-10T12:59:34.262Z,9.50
2019-03-10T13:02:03.827Z,9.50
2019-03-10T13:04:33.621Z,9.40
2019-03-10T13:07:03.054Z,9.30
2019-03-10T13:09:32.947Z,9.30
2019-03-10T13:12:03.150Z,9.30
2019-03-10T13:14:33.821Z,9.40
2019-03-10T13:17:03.594Z,9.70
2019-03-10T13:19:33.147Z,10.20
2019-03-10T13:22:02.898Z,11.00
2019-03-10T13:24:32.749Z,11.10
2019-03-10T13:27:02.428Z,11.10
2019-03-10T13:29:31.892Z,11.00
2019-03-10T13:32:01.652Z,10.90
2019-03-10T13:34:31.121Z,11.00
2019-03-10T13:37:00.524Z,10.90
2019-03-10T13:39:30.249Z,11.20
2019-03-10T13:41:59.705Z,11.70
2019-03-10T13:44:30.781Z,12.00
2019-03-10T13:47:00.549Z,11.90
2019-03-10T13:49:30.000Z,11.70
2019-03-10T13:51:59.784Z,11.60
2019-03-10T13:54:29.353Z,11.50
2019-03-10T13:56:58.803Z,11.30
2019-03-10T13:59:28.369Z,11.30
2019-03-10T14:01:58.047Z,11.50
2019-03-10T14:04:27.881Z,11.80
2019-03-10T14:06:57.235Z,12.10
2019-03-10T14:09:26.996Z,12.00
2019-03-10T14:11:56.444Z,11.70
2019-03-10T14:14:26.211Z,11.70
2019-03-10T14:16:56.020Z,11.90
2019-03-10T14:19:25.823Z,11.80
2019-03-10T14:21:55.592Z,11.80
2019-03-10T14:24:24.972Z,12.10
2019-03-10T14:26:54.460Z,12.40
2019-03-10T14:29:24.525Z,12.30
2019-03-10T14:31:53.989Z,11.80
2019-03-10T14:34:23.405Z,11.50
2019-03-10T14:36:52.857Z,11.20
2019-03-10T14:39:22.251Z,11.10
2019-03-10T14:41:52.128Z,10.90
2019-03-10T14:44:21.615Z,11.10
2019-03-10T14:46:51.068Z,11.00
2019-03-10T14:49:23.452Z,10.70
2019-03-10T14:51:51.993Z,10.80
2019-03-10T14:54:21.415Z,10.60
2019-03-10T14:56:51.235Z,10.40
2019-03-10T14:59:20.669Z,10.30
2019-03-10T15:01:50.090Z,10.30
2019-03-10T15:04:19.569Z,10.40
2019-03-10T15:06:49.421Z,10.30
2019-03-10T15:09:18.893Z,10.10
2019-03-10T15:11:48.389Z,10.00
2019-03-10T15:14:17.900Z,9.90
2019-03-10T15:16:49.407Z,9.90
2019-03-10T15:19:19.111Z,9.70
2019-03-10T15:21:48.977Z,9.80
2019-03-10T15:24:18.794Z,9.90
2019-03-10T15:26:48.297Z,9.90
2019-03-10T15:29:17.789Z,9.80
2019-03-10T15:31:48.376Z,9.80
2019-03-10T15:34:17.738Z,9.90
2019-03-10T15:36:47.568Z,10.00
2019-03-10T15:39:16.964Z,10.00
2019-03-10T15:41:46.339Z,10.00
2019-03-10T15:44:16.497Z,10.00
2019-03-10T15:46:46.334Z,10.00
2019-03-10T15:49:15.776Z,9.90
2019-03-10T15:51:45.530Z,9.80
2019-03-10T15:54:15.297Z,9.50
2019-03-10T15:56:45.809Z,9.20
2019-03-10T15:59:15.556Z,8.90
2019-03-10T16:01:45.104Z,8.70
2019-03-10T16:04:21.506Z,8.60
2019-03-10T16:06:51.425Z,8.40
2019-03-10T16:09:20.904Z,8.30
2019-03-10T16:11:50.317Z,8.30
2019-03-10T16:15:10.715Z,8.20
2019-03-10T16:17:47.551Z,8.20
2019-03-10T16:20:32.616Z,8.10
2019-03-10T16:23:02.357Z,7.90
2019-03-10T16:25:32.685Z,7.80
2019-03-10T16:28:02.578Z,7.70
2019-03-10T16:30:32.085Z,7.60
2019-03-10T16:33:03.261Z,7.50
2019-03-10T16:35:34.781Z,7.50
2019-03-10T16:38:04.698Z,7.50
2019-03-10T16:40:34.513Z,7.30
2019-03-10T16:43:04.016Z,7.10
2019-03-10T16:45:33.492Z,6.80
2019-03-10T16:48:03.318Z,6.60
2019-03-10T16:50:33.284Z,6.50
2019-03-10T16:53:03.062Z,6.30
2019-03-10T16:55:32.897Z,6.20
2019-03-10T16:58:02.666Z,6.20
2019-03-10T17:00:32.788Z,6.10
2019-03-10T17:03:02.977Z,6.10
2019-03-10T17:05:32.985Z,6.00
2019-03-10T17:08:02.352Z,6.00
2019-03-10T17:10:32.054Z,5.90
2019-03-10T17:13:01.585Z,5.90
2019-03-10T17:15:31.069Z,5.90
2019-03-10T17:18:00.436Z,5.80
2019-03-10T17:20:29.899Z,5.80
2019-03-10T17:22:59.463Z,5.80
2019-03-10T17:25:28.930Z,5.70
2019-03-10T17:27:58.420Z,5.70
2019-03-10T17:30:27.813Z,5.70
2019-03-10T17:32:57.265Z,5.70
2019-03-10T17:35:33.401Z,5.70
2019-03-10T17:38:03.254Z,5.70
2019-03-10T17:40:33.164Z,5.70
2019-03-10T17:43:02.564Z,5.70
2019-03-10T17:45:32.093Z,5.70
2019-03-10T17:48:02.530Z,5.80
2019-03-10T17:50:32.324Z,5.80
2019-03-10T17:53:02.371Z,5.80
2019-03-10T17:55:31.825Z,5.80
2019-03-10T17:58:01.669Z,5.80
2019-03-10T18:00:31.923Z,5.80
2019-03-10T18:03:02.805Z,5.90
2019-03-10T18:05:32.681Z,5.90
2019-03-10T18:08:02.602Z,6.00
2019-03-10T18:10:32.044Z,6.00
2019-03-10T18:13:01.872Z,6.00
2019-03-10T18:15:31.812Z,6.00
2019-03-10T18:18:03.071Z,6.00
2019-03-10T18:20:32.917Z,6.10
2019-03-10T18:23:02.301Z,6.10
2019-03-10T18:25:43.740Z,6.10
2019-03-10T18:28:14.744Z,6.10
2019-03-10T18:30:44.181Z,6.20
2019-03-10T18:33:13.989Z,6.20
2019-03-10T18:35:43.478Z,6.20
2019-03-10T18:38:13.524Z,6.20
2019-03-10T18:40:43.754Z,6.20
2019-03-10T18:43:13.313Z,6.20
2019-03-10T18:45:43.214Z,6.20
2019-03-10T18:48:13.079Z,6.20
2019-03-10T18:50:42.787Z,6.20
2019-03-10T18:53:12.830Z,6.10
2019-03-10T18:55:43.696Z,6.10
2019-03-10T18:58:13.582Z,6.10
2019-03-10T19:00:43.485Z,6.00
2019-03-10T19:03:13.449Z,6.00
2019-03-10T19:05:43.497Z,6.00
2019-03-10T19:08:12.984Z,6.00
2019-03-10T19:10:42.427Z,6.00
2019-03-10T19:13:12.333Z,5.90
2019-03-10T19:15:42.025Z,5.90
2019-03-10T19:18:11.500Z,5.80
2019-03-10T19:20:40.893Z,5.80
2019-03-10T19:23:10.733Z,5.80
2019-03-10T19:25:40.461Z,5.70
2019-03-10T19:28:09.918Z,5.70
2019-03-10T19:30:39.794Z,5.70
2019-03-10T19:33:09.909Z,5.60
2019-03-10T19:35:39.897Z,5.60
2019-03-10T19:38:09.616Z,5.60
2019-03-10T19:40:39.577Z,5.60
2019-03-10T19:43:09.129Z,5.60
2019-03-10T19:45:39.778Z,5.60
2019-03-10T19:48:09.383Z,5.60
2019-03-10T19:50:39.630Z,5.60
2019-03-10T19:53:09.503Z,5.60
2019-03-10T19:55:39.648Z,5.50
2019-03-10T19:58:09.086Z,5.50
2019-03-10T20:00:38.886Z,5.50
2019-03-10T20:03:09.641Z,5.50
2019-03-10T20:05:39.417Z,5.40
2019-03-10T20:08:08.932Z,5.40
2019-03-10T20:10:38.634Z,5.30
2019-03-10T20:13:08.549Z,5.30
2019-03-10T20:15:38.013Z,5.30
2019-03-10T20:18:07.421Z,5.30
2019-03-10T20:20:36.831Z,5.20
2019-03-10T20:23:07.770Z,4.90
2019-03-10T20:25:38.341Z,4.40
2019-03-10T20:28:09.337Z,4.00
2019-03-10T20:30:39.014Z,3.70
2019-03-10T20:33:08.865Z,3.50
2019-03-10T20:35:38.310Z,3.40
2019-03-10T20:38:07.745Z,3.30
2019-03-10T20:40:37.401Z,3.10
2019-03-10T20:43:06.790Z,3.00
2019-03-10T20:45:37.361Z,3.00
2019-03-10T20:48:08.428Z,3.00
2019-03-10T20:50:38.770Z,2.90
2019-03-10T20:53:08.261Z,2.90
2019-03-10T20:55:37.713Z,2.90
2019-03-10T20:58:07.729Z,2.90
2019-03-10T21:00:37.449Z,2.90
2019-03-10T21:03:07.025Z,2.90
2019-03-10T21:05:37.511Z,2.90
2019-03-10T21:08:07.365Z,2.90
2019-03-10T21:10:37.097Z,2.80
2019-03-10T21:13:06.809Z,2.80
2019-03-10T21:15:36.394Z,2.70
2019-03-10T21:18:05.948Z,2.60
2019-03-10T21:20:35.541Z,2.60
2019-03-10T21:23:05.223Z,2.60
2019-03-10T21:25:34.683Z,2.50
2019-03-10T21:28:04.114Z,2.50
2019-03-10T21:30:33.702Z,2.50
2019-03-10T21:33:03.117Z,2.50
2019-03-10T21:35:33.554Z,2.40
2019-03-10T21:38:03.255Z,2.40
2019-03-10T21:40:33.009Z,2.40
2019-03-10T21:43:02.849Z,2.30
2019-03-10T21:45:32.640Z,2.30
2019-03-10T21:48:02.178Z,2.30
2019-03-10T21:50:31.999Z,2.20
2019-03-10T21:53:01.458Z,2.30
2019-03-10T21:55:30.911Z,2.30
2019-03-10T21:58:00.376Z,2.20
2019-03-10T22:00:29.848Z,2.20
2019-03-10T22:02:59.397Z,2.20
2019-03-10T22:05:28.885Z,2.20
2019-03-10T22:07:58.414Z,2.20
2019-03-10T22:10:28.221Z,2.20
2019-03-10T22:12:58.016Z,2.10
2019-03-10T22:15:27.848Z,2.10
2019-03-10T22:17:57.544Z,2.10
2019-03-10T22:20:27.356Z,2.10
2019-03-10T22:22:56.796Z,2.10
2019-03-10T22:25:26.270Z,2.10
2019-03-10T22:27:55.735Z,2.20
2019-03-10T22:30:25.203Z,2.20
2019-03-10T22:32:54.662Z,2.30
2019-03-10T22:35:24.118Z,2.30
2019-03-10T22:37:53.598Z,2.30
2019-03-10T22:40:23.128Z,2.20
2019-03-10T22:42:52.905Z,2.20
2019-03-10T22:45:22.297Z,2.20
2019-03-10T22:47:51.650Z,2.20
2019-03-10T22:50:21.028Z,2.20
2019-03-10T22:52:50.389Z,2.30
2019-03-10T22:55:19.893Z,2.30
2019-03-10T22:57:49.528Z,2.30
2019-03-10T23:00:20.887Z,2.30
2019-03-10T23:02:50.701Z,2.40
2019-03-10T23:05:20.076Z,2.40
2019-03-10T23:07:49.461Z,2.50
2019-03-10T23:10:19.400Z,2.60
2019-03-10T23:12:48.872Z,2.70
2019-03-10T23:15:18.243Z,2.80
2019-03-10T23:17:48.074Z,2.90
2019-03-10T23:20:17.834Z,2.90
2019-03-10T23:22:47.269Z,3.00
2019-03-10T23:25:17.070Z,3.00
2019-03-10T23:27:46.866Z,3.00
2019-03-10T23:30:16.735Z,2.90
2019-03-10T23:32:46.217Z,2.90
2019-03-10T23:35:15.733Z,2.90
2019-03-10T23:37:45.184Z,2.90
2019-03-10T23:40:14.873Z,2.90
2019-03-10T23:42:44.246Z,2.90
2019-03-10T23:45:14.116Z,2.90
2019-03-10T23:47:43.583Z,2.90
2019-03-10T23:50:13.461Z,2.90
2019-03-10T23:52:43.206Z,3.00
2019-03-10T23:55:12.985Z,3.00
2019-03-10T23:57:42.377Z,3.00
